Time;durP1;ratioP1;P1;durP2;ratioP2;P2;SDS_P1;SDS_P2;PMS_P1;PMS_P2;Temp;Humidity;BMP_temperature;BMP_pressure;BME280_temperature;BME280_humidity;BME280_pressure;Samples;Min_cycle;Max_cycle;Signal;HPM_P1;HPM_P2
2021/09/01 00:01:52;;;;;;;7.90;7.05;;;;;;;;;;5056983;28;20082;-58
2021/09/01 00:04:18;;;;;;;8.95;7.50;;;;;;;;;;5056828;28;20434;-58
2021/09/01 00:06:44;;;;;;;8.63;7.78;;;;;;;;;;5057325;28;20061;-58
2021/09/01 00:09:10;;;;;;;12.85;9.07;;;;;;;;;;5038862;28;20029;-58
2021/09/01 00:11:36;;;;;;;11.32;8.52;;;;;;;;;;5038978;28;20040;-58
2021/09/01 00:14:03;;;;;;;9.02;7.40;;;;;;;;;;5056665;28;20455;-58
2021/09/01 00:16:30;;;;;;;8.13;7.13;;;;;;;;;;5056674;28;20051;-58
2021/09/01 00:18:58;;;;;;;9.98;8.88;;;;;;;;;;5056578;28;20064;-58
2021/09/01 00:21:24;;;;;;;10.20;7.88;;;;;;;;;;5056215;28;20468;-58
2021/09/01 00:23:53;;;;;;;9.85;8.90;;;;;;;;;;5056518;28;20025;-58
2021/09/01 00:26:20;;;;;;;10.48;8.85;;;;;;;;;;5057191;28;20048;-58
2021/09/01 00:28:46;;;;;;;9.63;8.40;;;;;;;;;;5056325;28;20083;-58
2021/09/01 00:31:12;;;;;;;9.75;7.80;;;;;;;;;;5056324;28;20055;-58
2021/09/01 00:33:38;;;;;;;8.85;7.95;;;;;;;;;;5056906;28;20021;-58
2021/09/01 00:36:04;;;;;;;11.55;8.43;;;;;;;;;;5038346;28;20029;-58
2021/09/01 00:38:30;;;;;;;11.52;9.38;;;;;;;;;;5056199;28;20025;-58
2021/09/01 00:40:57;;;;;;;10.32;8.27;;;;;;;;;;5056452;28;20520;-58
2021/09/01 00:43:23;;;;;;;14.65;8.50;;;;;;;;;;5056227;28;20060;-58
2021/09/01 00:45:49;;;;;;;12.13;9.15;;;;;;;;;;5056391;28;20095;-58
2021/09/01 00:48:20;;;;;;;11.35;8.95;;;;;;;;;;5055788;28;20466;-58
2021/09/01 00:50:47;;;;;;;13.27;9.25;;;;;;;;;;5055972;28;20036;-58
2021/09/01 00:53:13;;;;;;;12.02;8.05;;;;;;;;;;5055931;28;20051;-58
2021/09/01 00:55:43;;;;;;;12.75;9.98;;;;;;;;;;5055900;28;20107;-58
2021/09/01 00:58:09;;;;;;;12.73;10.18;;;;;;;;;;5055802;28;20371;-58
2021/09/01 01:03:14;;;;;;;11.25;9.65;;;;;;;;;;5055226;28;20033;-59
2021/09/01 01:05:40;;;;;;;11.15;9.95;;;;;;;;;;5055209;28;20036;-58
2021/09/01 01:08:06;;;;;;;10.88;9.32;;;;;;;;;;5055663;28;20025;-58
2021/09/01 01:10:33;;;;;;;13.05;9.57;;;;;;;;;;5055237;28;20114;-59
2021/09/01 01:12:59;;;;;;;11.93;10.10;;;;;;;;;;5055923;28;20453;-59
2021/09/01 01:15:25;;;;;;;11.43;10.07;;;;;;;;;;5055021;28;20111;-59
2021/09/01 01:17:55;;;;;;;15.52;10.00;;;;;;;;;;5055488;28;20383;-58
2021/09/01 01:20:21;;;;;;;13.25;10.13;;;;;;;;;;5055425;28;20029;-59
2021/09/01 01:22:47;;;;;;;11.55;10.15;;;;;;;;;;5056173;28;20071;-59
2021/09/01 01:25:27;;;;;;;12.65;11.35;;;;;;;;;;5055385;28;20067;-58
2021/09/01 01:27:53;;;;;;;15.10;10.93;;;;;;;;;;5037334;28;20025;-59
2021/09/01 01:30:20;;;;;;;15.07;10.77;;;;;;;;;;5055240;28;20124;-59
2021/09/01 01:32:48;;;;;;;13.25;10.82;;;;;;;;;;5056078;28;20032;-58
2021/09/01 01:35:43;;;;;;;14.27;11.55;;;;;;;;;;5054837;28;20086;-58
2021/09/01 01:38:11;;;;;;;12.48;11.20;;;;;;;;;;5033820;28;20060;-58
2021/09/01 01:40:46;;;;;;;16.58;12.30;;;;;;;;;;5032378;28;20409;-58
2021/09/01 01:43:12;;;;;;;13.95;12.10;;;;;;;;;;5055810;28;20486;-58
2021/09/01 01:45:40;;;;;;;14.35;12.82;;;;;;;;;;5037907;28;20332;-58
2021/09/01 01:48:06;;;;;;;13.98;11.85;;;;;;;;;;5054889;28;20032;-58
2021/09/01 01:50:32;;;;;;;14.70;12.77;;;;;;;;;;5037175;28;20033;-58
2021/09/01 01:52:58;;;;;;;15.05;13.50;;;;;;;;;;5055370;28;20366;-58
2021/09/01 01:55:24;;;;;;;16.38;12.10;;;;;;;;;;5055053;28;20061;-58
2021/09/01 01:57:50;;;;;;;14.90;12.40;;;;;;;;;;5055197;28;20108;-58
2021/09/01 02:00:17;;;;;;;14.55;11.38;;;;;;;;;;5054878;28;20137;-58
2021/09/01 02:02:43;;;;;;;15.13;12.27;;;;;;;;;;5054686;28;20033;-58
2021/09/01 02:05:09;;;;;;;16.42;12.68;;;;;;;;;;5054605;28;20075;-58
2021/09/01 02:07:35;;;;;;;16.52;13.27;;;;;;;;;;5054802;28;20036;-58
2021/09/01 02:10:04;;;;;;;14.60;11.73;;;;;;;;;;5036226;28;20048;-58
2021/09/01 02:12:30;;;;;;;15.38;12.90;;;;;;;;;;5054138;28;20025;-58
2021/09/01 02:14:56;;;;;;;15.43;13.68;;;;;;;;;;5036379;28;20029;-58
2021/09/01 02:17:23;;;;;;;19.60;13.48;;;;;;;;;;5053967;28;20031;-58
2021/09/01 02:19:56;;;;;;;14.38;11.20;;;;;;;;;;5054222;28;20101;-58
2021/09/01 02:22:22;;;;;;;14.18;11.75;;;;;;;;;;5054005;28;20025;-58
2021/09/01 02:24:49;;;;;;;12.98;11.52;;;;;;;;;;5054236;28;20055;-58
2021/09/01 02:27:15;;;;;;;14.48;12.73;;;;;;;;;;5054124;28;20029;-58
2021/09/01 02:29:41;;;;;;;15.25;11.80;;;;;;;;;;5054348;28;20107;-58
2021/09/01 02:32:08;;;;;;;15.48;12.82;;;;;;;;;;5054159;28;20035;-58
2021/09/01 02:34:34;;;;;;;15.50;12.48;;;;;;;;;;5036208;28;20047;-58
2021/09/01 02:37:00;;;;;;;16.92;13.88;;;;;;;;;;5053690;28;20115;-58
2021/09/01 02:39:26;;;;;;;15.55;13.27;;;;;;;;;;5053985;28;20103;-58
2021/09/01 02:41:52;;;;;;;16.92;14.15;;;;;;;;;;5054239;28;20048;-58
2021/09/01 02:44:18;;;;;;;16.90;13.63;;;;;;;;;;5036032;28;20522;-58
2021/09/01 02:46:44;;;;;;;18.77;14.25;;;;;;;;;;5053895;28;20055;-58
2021/09/01 02:49:10;;;;;;;18.13;14.68;;;;;;;;;;5053577;28;20025;-58
2021/09/01 02:51:36;;;;;;;19.63;15.82;;;;;;;;;;5053746;28;20041;-58
2021/09/01 02:54:03;;;;;;;19.45;15.20;;;;;;;;;;5036377;28;20039;-58
2021/09/01 02:56:29;;;;;;;27.80;15.40;;;;;;;;;;5053785;28;20025;-58
2021/09/01 02:58:55;;;;;;;17.77;14.90;;;;;;;;;;5053712;28;20039;-58
2021/09/01 03:01:21;;;;;;;15.52;13.35;;;;;;;;;;5053439;28;20029;-58
2021/09/01 03:03:47;;;;;;;17.42;15.45;;;;;;;;;;5054214;28;20025;-58
2021/09/01 03:06:13;;;;;;;21.27;16.15;;;;;;;;;;5053797;28;20383;-58
2021/09/01 03:08:39;;;;;;;16.35;13.98;;;;;;;;;;5035778;28;20425;-58
2021/09/01 03:11:05;;;;;;;16.67;14.52;;;;;;;;;;5035417;28;20048;-58
2021/09/01 03:13:32;;;;;;;17.30;14.65;;;;;;;;;;5053548;28;20374;-58
2021/09/01 03:16:01;;;;;;;16.33;13.73;;;;;;;;;;5053480;28;20029;-58
2021/09/01 03:18:29;;;;;;;21.70;15.10;;;;;;;;;;5053791;28;20474;-58
2021/09/01 03:20:56;;;;;;;18.13;15.30;;;;;;;;;;5053482;28;20057;-58
2021/09/01 03:23:24;;;;;;;18.90;14.75;;;;;;;;;;5036434;28;20032;-58
2021/09/01 03:25:50;;;;;;;17.17;13.65;;;;;;;;;;5053451;28;20021;-58
2021/09/01 03:28:16;;;;;;;18.05;14.70;;;;;;;;;;5057028;28;20100;-58
2021/09/01 03:30:42;;;;;;;16.45;13.35;;;;;;;;;;5057467;28;20033;-58
2021/09/01 03:33:08;;;;;;;14.05;12.57;;;;;;;;;;5057617;28;20466;-58
2021/09/01 03:35:34;;;;;;;18.60;14.77;;;;;;;;;;5057524;28;20059;-58
2021/09/01 03:38:03;;;;;;;16.65;14.23;;;;;;;;;;5057146;28;20025;-58
2021/09/01 03:40:29;;;;;;;18.73;15.68;;;;;;;;;;5057020;28;20029;-58
2021/09/01 03:42:55;;;;;;;18.20;15.77;;;;;;;;;;5058161;28;20091;-58
2021/09/01 03:45:24;;;;;;;19.13;17.17;;;;;;;;;;5057491;28;20016;-58
2021/09/01 03:47:50;;;;;;;25.95;17.77;;;;;;;;;;5057278;28;20025;-58
2021/09/01 03:50:16;;;;;;;24.95;18.40;;;;;;;;;;5057146;28;20055;-58
2021/09/01 03:52:42;;;;;;;25.83;17.38;;;;;;;;;;5057462;28;20044;-58
2021/09/01 03:55:09;;;;;;;23.10;18.95;;;;;;;;;;5039247;28;20455;-58
2021/09/01 03:57:36;;;;;;;19.98;17.42;;;;;;;;;;5057309;28;20497;-58
2021/09/01 04:00:03;;;;;;;20.08;17.08;;;;;;;;;;5057043;28;20231;-58
2021/09/01 04:02:29;;;;;;;19.17;15.80;;;;;;;;;;5057504;28;20037;-58
2021/09/01 04:04:58;;;;;;;23.90;17.73;;;;;;;;;;5056539;28;20021;-58
2021/09/01 04:07:24;;;;;;;22.85;18.65;;;;;;;;;;5039009;28;20107;-58
2021/09/01 04:09:50;;;;;;;26.05;17.95;;;;;;;;;;5056576;28;20049;-59
2021/09/01 04:12:16;;;;;;;20.52;17.13;;;;;;;;;;5056756;28;20110;-58
2021/09/01 04:14:42;;;;;;;22.23;18.20;;;;;;;;;;5039438;28;20036;-58
2021/09/01 04:17:08;;;;;;;24.00;17.92;;;;;;;;;;5056418;28;20016;-58
2021/09/01 04:19:38;;;;;;;24.23;16.45;;;;;;;;;;5056686;28;20127;-58
2021/09/01 04:22:05;;;;;;;19.50;16.63;;;;;;;;;;5057271;28;20094;-58
2021/09/01 04:24:31;;;;;;;17.58;15.50;;;;;;;;;;5056502;28;20074;-58
2021/09/01 04:26:57;;;;;;;20.40;16.10;;;;;;;;;;5056739;28;20348;-59
2021/09/01 04:29:26;;;;;;;20.80;16.48;;;;;;;;;;5056816;28;20109;-59
2021/09/01 04:31:52;;;;;;;19.50;16.08;;;;;;;;;;5057185;28;20061;-59
2021/09/01 04:34:18;;;;;;;19.67;15.80;;;;;;;;;;5056888;28;20033;-58
2021/09/01 04:36:44;;;;;;;18.70;14.10;;;;;;;;;;5039288;28;20099;-59
2021/09/01 04:39:10;;;;;;;19.88;14.98;;;;;;;;;;5055804;28;20104;-58
2021/09/01 04:41:36;;;;;;;16.63;11.55;;;;;;;;;;5055942;28;20544;-58
2021/09/01 04:44:02;;;;;;;15.15;11.57;;;;;;;;;;5056123;28;20176;-58
2021/09/01 04:46:28;;;;;;;12.55;10.48;;;;;;;;;;5056451;28;20025;-58
2021/09/01 04:48:54;;;;;;;11.38;8.85;;;;;;;;;;5054882;28;20037;-58
2021/09/01 04:51:21;;;;;;;8.88;7.78;;;;;;;;;;5056008;28;20021;-58
2021/09/01 04:53:49;;;;;;;7.20;6.50;;;;;;;;;;5056051;28;20032;-58
2021/09/01 04:56:15;;;;;;;8.85;7.05;;;;;;;;;;5038009;28;20463;-58
2021/09/01 04:58:44;;;;;;;9.07;7.78;;;;;;;;;;5056697;28;20021;-58
2021/09/01 05:01:12;;;;;;;8.13;7.32;;;;;;;;;;5055905;28;20458;-58
2021/09/01 05:03:38;;;;;;;7.97;7.05;;;;;;;;;;5038074;28;20075;-58
2021/09/01 05:06:04;;;;;;;9.20;8.30;;;;;;;;;;5055655;28;20025;-58
2021/09/01 05:08:30;;;;;;;9.18;7.53;;;;;;;;;;5055743;28;20033;-58
2021/09/01 05:10:56;;;;;;;8.93;7.82;;;;;;;;;;5055848;28;20382;-58
2021/09/01 05:13:22;;;;;;;9.07;8.13;;;;;;;;;;5037667;28;20036;-58
2021/09/01 05:15:48;;;;;;;9.45;8.55;;;;;;;;;;5055128;28;20025;-58
2021/09/01 05:18:16;;;;;;;8.75;7.78;;;;;;;;;;5055762;28;20021;-58
2021/09/01 05:20:43;;;;;;;10.10;9.07;;;;;;;;;;5055481;28;20421;-58
2021/09/01 05:23:09;;;;;;;8.25;7.45;;;;;;;;;;5038139;28;20025;-58
2021/09/01 05:25:45;;;;;;;9.30;8.23;;;;;;;;;;5056149;28;20431;-58
2021/09/01 05:28:16;;;;;;;6.97;6.28;;;;;;;;;;5055008;28;20025;-58
2021/09/01 05:30:42;;;;;;;7.63;6.93;;;;;;;;;;5055314;28;20040;-58
2021/09/01 05:33:11;;;;;;;9.40;7.03;;;;;;;;;;5055071;28;20028;-58
2021/09/01 05:35:40;;;;;;;9.95;8.10;;;;;;;;;;5037850;28;20017;-58
2021/09/01 05:38:07;;;;;;;8.68;7.63;;;;;;;;;;5055174;28;20048;-58
2021/09/01 05:40:33;;;;;;;9.00;8.07;;;;;;;;;;5037988;28;20079;-58
2021/09/01 05:42:59;;;;;;;15.02;9.27;;;;;;;;;;5055472;28;20079;-58
2021/09/01 05:45:28;;;;;;;9.80;8.77;;;;;;;;;;5054759;28;20467;-58
2021/09/01 05:47:57;;;;;;;9.27;8.23;;;;;;;;;;5055005;28;20025;-58
2021/09/01 05:50:24;;;;;;;13.55;10.00;;;;;;;;;;5053807;28;20421;-58
2021/09/01 05:52:51;;;;;;;11.45;9.77;;;;;;;;;;5055414;28;20458;-58
2021/09/01 05:55:19;;;;;;;14.00;9.55;;;;;;;;;;5052514;28;20029;-58
2021/09/01 05:57:46;;;;;;;9.95;8.30;;;;;;;;;;5054824;28;20051;-58
2021/09/01 06:00:13;;;;;;;10.23;8.32;;;;;;;;;;5054782;28;20035;-58
2021/09/01 06:02:42;;;;;;;8.32;7.07;;;;;;;;;;5054807;28;20031;-58
2021/09/01 06:05:11;;;;;;;8.27;7.20;;;;;;;;;;5054627;28;20021;-58
2021/09/01 06:07:40;;;;;;;9.85;7.00;;;;;;;;;;5054662;28;20111;-59
2021/09/01 06:10:21;;;;;;;;;;;;;;;;;;;;;
2021/09/01 06:12:49;;;;;;;7.57;6.40;;;;;;;;;;5051235;28;20037;-59
2021/09/01 06:15:17;;;;;;;8.32;6.97;;;;;;;;;;5036565;28;20406;-59
2021/09/01 06:17:44;;;;;;;7.93;6.72;;;;;;;;;;5055116;28;20029;-59
2021/09/01 06:20:10;;;;;;;13.32;6.88;;;;;;;;;;5055128;28;20025;-59
2021/09/01 06:22:36;;;;;;;6.43;5.40;;;;;;;;;;5054928;28;20052;-59
2021/09/01 06:25:06;;;;;;;7.18;6.35;;;;;;;;;;5054279;28;20028;-59
2021/09/01 06:27:32;;;;;;;9.00;6.63;;;;;;;;;;5054173;28;20425;-58
2021/09/01 06:30:02;;;;;;;7.07;5.82;;;;;;;;;;5054743;28;20082;-59
2021/09/01 06:32:28;;;;;;;9.55;6.82;;;;;;;;;;5052715;28;20044;-59
2021/09/01 06:34:54;;;;;;;8.90;7.15;;;;;;;;;;5054177;28;20067;-59
2021/09/01 06:37:20;;;;;;;8.15;6.90;;;;;;;;;;5054072;28;20056;-59
2021/09/01 06:39:53;;;;;;;10.15;7.45;;;;;;;;;;5054358;28;20032;-59
2021/09/01 06:42:19;;;;;;;7.80;6.78;;;;;;;;;;5055183;28;20029;-59
2021/09/01 06:44:46;;;;;;;9.82;7.57;;;;;;;;;;5054047;28;20029;-59
2021/09/01 06:47:12;;;;;;;12.18;9.50;;;;;;;;;;5053843;28;20036;-59
2021/09/01 06:49:38;;;;;;;11.68;9.13;;;;;;;;;;5053956;28;20032;-59
2021/09/01 06:52:04;;;;;;;11.45;7.85;;;;;;;;;;5053706;28;20459;-58
2021/09/01 06:54:35;;;;;;;9.75;7.03;;;;;;;;;;5053723;28;20040;-58
2021/09/01 06:57:04;;;;;;;10.05;7.80;;;;;;;;;;5036326;28;20041;-59
2021/09/01 06:59:30;;;;;;;17.48;10.07;;;;;;;;;;5054077;28;20029;-58
2021/09/01 07:01:56;;;;;;;13.65;9.48;;;;;;;;;;5036442;28;20029;-59
2021/09/01 07:04:22;;;;;;;9.55;7.07;;;;;;;;;;5053629;28;20487;-59
2021/09/01 07:06:54;;;;;;;10.95;9.65;;;;;;;;;;5053567;28;20057;-59
2021/09/01 07:09:22;;;;;;;11.38;10.05;;;;;;;;;;5053631;28;20028;-58
2021/09/01 07:11:51;;;;;;;9.50;8.55;;;;;;;;;;5053242;28;20485;-59
2021/09/01 07:14:17;;;;;;;14.20;11.07;;;;;;;;;;5053629;28;20061;-58
2021/09/01 07:16:46;;;;;;;13.18;10.63;;;;;;;;;;5053630;28;20079;-59
2021/09/01 07:19:12;;;;;;;11.60;10.18;;;;;;;;;;5053292;28;20051;-59
2021/09/01 07:21:38;;;;;;;12.20;10.25;;;;;;;;;;5054065;28;20451;-59
2021/09/01 07:24:04;;;;;;;11.77;10.43;;;;;;;;;;5053562;28;20025;-59
2021/09/01 07:26:33;;;;;;;13.18;10.25;;;;;;;;;;5053434;28;20029;-59
2021/09/01 07:28:59;;;;;;;13.90;10.95;;;;;;;;;;5035355;28;20032;-60
2021/09/01 07:31:27;;;;;;;12.18;10.93;;;;;;;;;;5053671;28;20033;-57
2021/09/01 07:33:56;;;;;;;14.50;12.40;;;;;;;;;;5053583;28;20029;-57
2021/09/01 07:36:22;;;;;;;19.80;13.60;;;;;;;;;;5035792;28;20348;-58
2021/09/01 07:38:48;;;;;;;15.13;12.55;;;;;;;;;;5053329;28;20379;-58
2021/09/01 07:41:15;;;;;;;18.70;13.23;;;;;;;;;;5053702;28;20112;-58
2021/09/01 07:43:43;;;;;;;14.63;11.57;;;;;;;;;;5035991;28;20029;-58
2021/09/01 07:46:15;;;;;;;15.40;11.63;;;;;;;;;;5053196;28;20432;-59
2021/09/01 07:48:42;;;;;;;15.23;11.95;;;;;;;;;;5053083;28;20025;-58
2021/09/01 07:51:08;;;;;;;15.60;13.02;;;;;;;;;;5053253;28;20528;-58
2021/09/01 07:53:34;;;;;;;22.27;14.18;;;;;;;;;;5053063;28;20036;-58
2021/09/01 07:56:00;;;;;;;16.17;12.07;;;;;;;;;;5053673;28;20029;-58
2021/09/01 07:58:28;;;;;;;12.82;11.10;;;;;;;;;;5052964;28;20029;-58
2021/09/01 08:01:19;;;;;;;12.00;10.90;;;;;;;;;;5036132;28;20391;-59
2021/09/01 08:03:45;;;;;;;13.45;11.63;;;;;;;;;;5033732;28;20033;-58
2021/09/01 08:06:11;;;;;;;11.27;9.18;;;;;;;;;;5053330;28;20438;-59
2021/09/01 08:08:37;;;;;;;15.20;12.40;;;;;;;;;;5053277;28;20067;-58
2021/09/01 08:11:15;;;;;;;13.43;9.93;;;;;;;;;;5053499;28;20081;-59
2021/09/01 08:13:44;;;;;;;13.63;10.43;;;;;;;;;;5053809;28;20387;-59
2021/09/01 08:16:16;;;;;;;13.45;11.27;;;;;;;;;;5057116;28;20025;-59
2021/09/01 08:18:47;;;;;;;12.82;11.07;;;;;;;;;;5057708;28;20032;-59
2021/09/01 08:21:15;;;;;;;11.60;10.43;;;;;;;;;;5056779;28;20467;-59
2021/09/01 08:23:41;;;;;;;11.82;10.43;;;;;;;;;;5057009;28;20044;-59
2021/09/01 08:26:09;;;;;;;12.18;10.63;;;;;;;;;;5038281;28;20082;-60
2021/09/01 08:28:35;;;;;;;10.82;9.70;;;;;;;;;;5057207;28;20036;-60
2021/09/01 08:31:01;;;;;;;13.38;11.32;;;;;;;;;;5056441;28;20043;-58
2021/09/01 08:33:27;;;;;;;14.23;10.82;;;;;;;;;;5056753;28;20116;-58
2021/09/01 08:35:56;;;;;;;12.75;10.57;;;;;;;;;;5056426;28;20322;-59
2021/09/01 08:38:23;;;;;;;14.05;10.15;;;;;;;;;;5038533;28;20419;-59
2021/09/01 08:40:54;;;;;;;15.23;11.85;;;;;;;;;;5056585;28;20051;-58
2021/09/01 08:43:46;;;;;;;13.60;9.93;;;;;;;;;;5056337;28;20033;-58
2021/09/01 08:46:12;;;;;;;10.70;8.48;;;;;;;;;;5056710;28;20033;-58
2021/09/01 08:48:59;;;;;;;10.88;9.73;;;;;;;;;;5055996;28;20033;-58
2021/09/01 08:51:26;;;;;;;11.77;10.02;;;;;;;;;;5039006;28;20032;-59
2021/09/01 08:53:56;;;;;;;12.65;8.88;;;;;;;;;;5055585;28;20039;-60
2021/09/01 08:56:25;;;;;;;9.77;8.77;;;;;;;;;;5037921;28;20441;-59
2021/09/01 08:58:52;;;;;;;13.07;9.85;;;;;;;;;;5055729;28;20029;-59
2021/09/01 09:01:39;;;;;;;8.80;7.90;;;;;;;;;;5056199;28;20378;-60
2021/09/01 09:04:19;;;;;;;9.30;8.15;;;;;;;;;;5056357;28;20370;-59
2021/09/01 09:06:45;;;;;;;10.35;7.85;;;;;;;;;;5055866;28;20051;-60
2021/09/01 09:09:14;;;;;;;7.90;7.10;;;;;;;;;;5055787;28;20029;-60
2021/09/01 09:11:40;;;;;;;10.82;7.55;;;;;;;;;;5055667;28;20106;-60
2021/09/01 09:14:16;;;;;;;8.13;7.30;;;;;;;;;;5055946;28;20025;-60
2021/09/01 09:16:42;;;;;;;9.27;7.57;;;;;;;;;;5055872;28;20475;-60
2021/09/01 09:19:14;;;;;;;7.93;7.13;;;;;;;;;;5055655;28;20020;-60
2021/09/01 09:21:40;;;;;;;8.65;7.65;;;;;;;;;;5056088;28;20041;-59
2021/09/01 09:24:23;;;;;;;8.02;6.53;;;;;;;;;;5056083;28;20037;-59
2021/09/01 09:26:49;;;;;;;10.60;6.47;;;;;;;;;;5055822;28;20100;-59
2021/09/01 09:29:19;;;;;;;8.43;6.53;;;;;;;;;;5054899;28;20459;-59
2021/09/01 09:31:47;;;;;;;;;;;;;;;;;;5056198;28;20033;-58
2021/09/01 09:34:20;;;;;;;9.65;6.47;;;;;;;;;;5054542;28;20015;-59
2021/09/01 09:37:08;;;;;;;7.88;6.82;;;;;;;;;;5055695;28;20036;-58
2021/09/01 09:39:41;;;;;;;7.20;6.32;;;;;;;;;;5055482;28;20025;-58
2021/09/01 09:42:08;;;;;;;8.15;7.25;;;;;;;;;;5055404;28;20029;-59
2021/09/01 09:44:34;;;;;;;9.30;5.95;;;;;;;;;;5055133;28;20021;-59
2021/09/01 09:47:25;;;;;;;;;;;;;;;;;;;;;
2021/09/01 09:50:07;;;;;;;8.15;5.95;;;;;;;;;;5052099;28;20494;-59
2021/09/01 09:55:48;;;;;;;7.93;5.00;;;;;;;;;;5031066;28;20033;-60
2021/09/01 09:58:20;;;;;;;6.13;5.10;;;;;;;;;;5037626;28;20028;-59
2021/09/01 10:01:00;;;;;;;6.72;5.03;;;;;;;;;;5055064;28;20035;-60
2021/09/01 10:03:36;;;;;;;7.15;4.95;;;;;;;;;;5054622;28;20017;-60
2021/09/01 10:06:25;;;;;;;5.53;4.57;;;;;;;;;;5051909;28;20087;-60
2021/09/01 10:09:28;;;;;;;7.87;5.20;;;;;;;;;;5048883;28;20055;-58
2021/09/01 10:12:49;;;;;;;;;;;;;;;;;;;;;
2021/09/01 10:15:20;;;;;;;4.88;3.90;;;;;;;;;;5048176;28;20025;-58
2021/09/01 10:17:55;;;;;;;6.50;5.15;;;;;;;;;;5036421;28;20021;-60
2021/09/01 10:20:23;;;;;;;5.30;4.20;;;;;;;;;;5054396;28;20025;-59
2021/09/01 10:23:18;;;;;;;5.03;3.85;;;;;;;;;;5055092;28;20025;-59
2021/09/01 10:25:54;;;;;;;5.65;5.07;;;;;;;;;;4966933;28;20032;-59
2021/09/01 10:31:38;;;;;;;6.65;4.60;;;;;;;;;;4973301;28;20042;-60
2021/09/01 10:34:54;;;;;;;;;;;;;;;;;;;;;
2021/09/01 10:38:18;;;;;;;5.53;3.88;;;;;;;;;;4931961;29;20038;-60
2021/09/01 10:41:00;;;;;;;4.82;3.90;;;;;;;;;;4933660;29;20130;-60
2021/09/01 10:49:08;;;;;;;4.78;3.90;;;;;;;;;;4992871;28;20546;-60
2021/09/01 10:51:34;;;;;;;5.00;3.90;;;;;;;;;;5019269;28;20045;-60
2021/09/01 10:54:18;;;;;;;4.25;3.33;;;;;;;;;;5053984;28;20025;-60
2021/09/01 10:56:53;;;;;;;5.95;4.10;;;;;;;;;;5053559;28;20529;-60
2021/09/01 10:59:29;;;;;;;5.45;3.50;;;;;;;;;;5036341;28;20366;-59
2021/09/01 11:02:08;;;;;;;5.20;3.92;;;;;;;;;;5053822;28;20025;-59
2021/09/01 11:04:34;;;;;;;5.45;4.13;;;;;;;;;;5053790;28;20036;-59
2021/09/01 11:07:04;;;;;;;4.53;3.50;;;;;;;;;;5053692;28;20465;-60
2021/09/01 11:09:33;;;;;;;7.47;4.25;;;;;;;;;;5036061;28;20075;-60
2021/09/01 11:11:59;;;;;;;6.15;4.60;;;;;;;;;;5035778;28;20063;-59
2021/09/01 11:14:31;;;;;;;7.25;4.25;;;;;;;;;;5053668;28;20025;-59
2021/09/01 11:17:01;;;;;;;5.65;4.32;;;;;;;;;;5053686;28;20474;-60
2021/09/01 11:19:28;;;;;;;7.80;4.57;;;;;;;;;;5053615;28;20025;-59
2021/09/01 11:21:55;;;;;;;4.45;3.70;;;;;;;;;;5053582;28;20119;-59
2021/09/01 11:24:22;;;;;;;5.55;4.43;;;;;;;;;;5053562;28;20064;-60
2021/09/01 11:26:54;;;;;;;5.20;3.47;;;;;;;;;;5053545;28;20049;-60
2021/09/01 11:29:29;;;;;;;4.00;3.70;;;;;;;;;;5053958;28;20021;-59
2021/09/01 11:31:55;;;;;;;5.28;3.97;;;;;;;;;;5053486;28;20060;-59
2021/09/01 11:34:21;;;;;;;5.65;3.65;;;;;;;;;;5053430;28;20053;-59
2021/09/01 11:36:47;;;;;;;5.32;4.03;;;;;;;;;;5053218;28;20017;-59
2021/09/01 11:39:13;;;;;;;10.43;4.13;;;;;;;;;;5053659;28;20369;-60
2021/09/01 11:41:39;;;;;;;7.82;3.92;;;;;;;;;;5053480;28;20044;-59
2021/09/01 11:44:07;;;;;;;5.20;4.45;;;;;;;;;;5036370;28;20017;-60
2021/09/01 11:46:37;;;;;;;6.32;4.93;;;;;;;;;;5035494;28;20378;-60
2021/09/01 11:49:13;;;;;;;6.68;4.32;;;;;;;;;;5057722;28;20028;-60
2021/09/01 11:51:41;;;;;;;6.82;5.10;;;;;;;;;;5057812;28;20039;-60
2021/09/01 11:54:08;;;;;;;6.35;3.85;;;;;;;;;;5056943;28;20104;-58
2021/09/01 11:56:34;;;;;;;9.40;4.80;;;;;;;;;;5058033;28;20049;-58
2021/09/01 11:59:10;;;;;;;5.07;4.05;;;;;;;;;;5057129;28;20028;-58
2021/09/01 12:01:38;;;;;;;5.07;3.58;;;;;;;;;;5057383;28;20052;-58
2021/09/01 12:04:04;;;;;;;8.48;3.20;;;;;;;;;;5057601;28;20379;-58
2021/09/01 12:06:55;;;;;;;4.80;3.97;;;;;;;;;;5057102;28;20029;-58
2021/09/01 12:09:23;;;;;;;7.32;4.22;;;;;;;;;;5045361;28;20281;-57
2021/09/01 12:11:50;;;;;;;5.45;3.78;;;;;;;;;;5056424;28;20462;-58
2021/09/01 12:14:18;;;;;;;5.93;4.20;;;;;;;;;;5056839;28;20028;-59
2021/09/01 12:16:44;;;;;;;5.45;3.92;;;;;;;;;;5038940;28;20035;-58
2021/09/01 12:19:12;;;;;;;7.85;3.63;;;;;;;;;;5056830;28;20043;-58
2021/09/01 12:21:59;;;;;;;5.20;3.30;;;;;;;;;;5057435;28;20038;-58
2021/09/01 12:24:27;;;;;;;4.90;3.20;;;;;;;;;;5056834;28;20053;-58
2021/09/01 12:26:58;;;;;;;4.43;3.65;;;;;;;;;;5056666;28;20024;-58
2021/09/01 12:29:38;;;;;;;5.45;4.22;;;;;;;;;;5056515;28;20017;-58
2021/09/01 12:32:05;;;;;;;5.78;3.80;;;;;;;;;;5056809;28;20029;-58
2021/09/01 12:34:36;;;;;;;5.00;2.75;;;;;;;;;;5056212;28;20050;-58
2021/09/01 12:37:05;;;;;;;6.95;3.45;;;;;;;;;;5056424;28;20070;-58
2021/09/01 12:39:39;;;;;;;4.95;3.38;;;;;;;;;;5056413;28;20052;-58
2021/09/01 12:42:05;;;;;;;3.97;3.13;;;;;;;;;;5056916;28;20112;-58
2021/09/01 12:44:48;;;;;;;4.22;3.60;;;;;;;;;;5056293;28;20085;-58
2021/09/01 12:47:14;;;;;;;4.05;3.20;;;;;;;;;;5056317;28;20021;-58
2021/09/01 12:49:44;;;;;;;6.13;3.42;;;;;;;;;;5056503;28;20033;-58
2021/09/01 12:52:10;;;;;;;3.45;2.97;;;;;;;;;;5056162;28;20025;-59
2021/09/01 12:54:36;;;;;;;4.93;3.45;;;;;;;;;;5056411;28;20021;-59
2021/09/01 12:57:03;;;;;;;4.57;3.25;;;;;;;;;;5056082;28;20017;-59
2021/09/01 12:59:34;;;;;;;4.65;3.00;;;;;;;;;;5056018;28;20021;-59
2021/09/01 13:02:00;;;;;;;6.13;3.65;;;;;;;;;;5056599;28;20116;-59
2021/09/01 13:04:28;;;;;;;4.63;2.92;;;;;;;;;;5037968;28;20033;-59
2021/09/01 13:06:54;;;;;;;6.10;3.30;;;;;;;;;;5055923;28;20391;-59
2021/09/01 13:09:20;;;;;;;5.30;2.97;;;;;;;;;;5055910;28;20025;-59
2021/09/01 13:11:46;;;;;;;4.80;3.00;;;;;;;;;;5038497;28;20059;-59
2021/09/01 13:14:12;;;;;;;4.50;3.17;;;;;;;;;;5055343;28;20016;-59
2021/09/01 13:16:38;;;;;;;4.93;2.97;;;;;;;;;;5055392;28;20021;-58
2021/09/01 13:19:04;;;;;;;7.00;3.50;;;;;;;;;;5055654;28;20025;-59
2021/09/01 13:21:33;;;;;;;4.35;3.00;;;;;;;;;;5055810;28;20029;-59
2021/09/01 13:24:22;;;;;;;4.95;3.58;;;;;;;;;;5020403;28;20033;-60
2021/09/01 13:26:48;;;;;;;5.07;3.53;;;;;;;;;;5054296;28;20128;-60
2021/09/01 13:29:14;;;;;;;5.10;3.50;;;;;;;;;;5055206;28;20024;-60
2021/09/01 13:34:58;;;;;;;2.75;2.30;;;;;;;;;;5055794;28;20048;-58
2021/09/01 13:37:52;;;;;;;;;;;;;;;;;;;;;
2021/09/01 13:46:34;;;;;;;2.85;2.55;;;;;;;;;;4939878;28;20026;-59
2021/09/01 13:55:15;;;;;;;3.78;2.83;;;;;;;;;;4954722;28;20078;-60
2021/09/01 13:58:02;;;;;;;5.10;2.90;;;;;;;;;;4935348;29;20040;-60
2021/09/01 14:00:37;;;;;;;5.25;2.92;;;;;;;;;;4935157;29;20062;-60
2021/09/01 14:03:22;;;;;;;4.68;2.83;;;;;;;;;;4935680;29;20032;-60
2021/09/01 14:06:21;;;;;;;4.63;3.40;;;;;;;;;;4946304;29;20036;-59
2021/09/01 14:09:44;;;;;;;12.48;2.80;;;;;;;;;;4928055;29;20527;-60
2021/09/01 14:12:31;;;;;;;5.32;3.53;;;;;;;;;;4896325;29;20506;-60
2021/09/01 14:22:26;;;;;;;5.63;3.60;;;;;;;;;;4878423;29;20057;-60
2021/09/01 14:24:28;;;;;;;6.65;3.20;;;;;;;;;;4906420;29;20491;-60
2021/09/01 14:26:54;;;;;;;6.75;3.58;;;;;;;;;;4915846;29;20036;-60
2021/09/01 14:29:20;;;;;;;3.95;3.00;;;;;;;;;;4987844;28;20067;-60
2021/09/01 14:31:46;;;;;;;5.47;3.58;;;;;;;;;;5054265;28;20458;-60
2021/09/01 14:34:12;;;;;;;4.82;2.97;;;;;;;;;;5036418;28;20024;-60
2021/09/01 14:36:38;;;;;;;6.20;3.55;;;;;;;;;;5054045;28;20031;-60
2021/09/01 14:39:22;;;;;;;;;;;;;;;;;;;;;
2021/09/01 14:42:15;;;;;;;3.10;2.30;;;;;;;;;;5036651;28;20033;-60
2021/09/01 14:51:04;;;;;;;;;;;;;;;;;;;;;
2021/09/01 14:56:39;;;;;;;5.05;3.67;;;;;;;;;;5036371;28;20021;-59
2021/09/01 14:59:06;;;;;;;3.90;2.90;;;;;;;;;;5053423;28;20013;-59
2021/09/01 15:14:37;;;;;;;;;;;;;;;;;;;;;
2021/09/01 15:17:56;;;;;;;4.05;2.63;;;;;;;;;;4892499;29;20028;-60
2021/09/01 15:24:12;;;;;;;4.32;3.60;;;;;;;;;;4840568;29;20034;-60
2021/09/01 15:29:46;;;;;;;;;;;;;;;;;;;;;
2021/09/01 15:33:15;;;;;;;3.42;2.60;;;;;;;;;;4839758;29;20054;-60
2021/09/01 15:35:23;;;;;;;4.45;2.85;;;;;;;;;;4849923;29;20519;-60
2021/09/01 15:37:50;;;;;;;4.30;2.47;;;;;;;;;;4887773;29;20036;-60
2021/09/01 15:40:16;;;;;;;6.30;3.05;;;;;;;;;;4974689;28;20384;-60
2021/09/01 15:42:46;;;;;;;3.63;2.42;;;;;;;;;;5034083;28;20064;-60
2021/09/01 15:45:18;;;;;;;4.20;3.03;;;;;;;;;;5033842;28;20029;-60
2021/09/01 15:48:05;;;;;;;3.83;2.58;;;;;;;;;;5033192;28;20468;-60
2021/09/01 15:54:06;;;;;;;3.97;2.53;;;;;;;;;;5011215;28;20438;-60
2021/09/01 15:57:01;;;;;;;6.97;2.45;;;;;;;;;;5011310;28;20108;-60
2021/09/01 15:59:38;;;;;;;3.55;2.80;;;;;;;;;;5008145;28;20041;-60
2021/09/01 16:02:07;;;;;;;4.68;2.85;;;;;;;;;;5006172;28;20412;-60
2021/09/01 16:04:46;;;;;;;4.60;3.10;;;;;;;;;;5015439;28;20113;-60
2021/09/01 16:10:46;;;;;;;4.75;3.10;;;;;;;;;;5035372;28;20016;-60
2021/09/01 16:13:12;;;;;;;3.45;3.05;;;;;;;;;;5052193;28;20040;-60